sensor_id;sensor_type;location;lat;lon;timestamp;P1;durP1;ratioP1;P2;durP2;ratioP2
19929;SDS011;10127;47.780;9.606;2023-04-01T00:01:25;6.07;;;0.95;;
19929;SDS011;10127;47.780;9.606;2023-04-01T00:03:51;1.92;;;0.82;;
19929;SDS011;10127;47.780;9.606;2023-04-01T00:06:17;3.50;;;0.80;;
19929;SDS011;10127;47.780;9.606;2023-04-01T00:08:43;2.40;;;0.77;;
19929;SDS011;10127;47.780;9.606;2023-04-01T00:11:09;2.80;;;0.60;;
19929;SDS011;10127;47.780;9.606;2023-04-01T00:13:35;1.75;;;0.60;;
19929;SDS011;10127;47.780;9.606;2023-04-01T00:16:01;1.60;;;0.82;;
19929;SDS011;10127;47.780;9.606;2023-04-01T00:18:33;3.33;;;0.70;;
19929;SDS011;10127;47.780;9.606;2023-04-01T00:20:59;5.05;;;0.90;;
19929;SDS011;10127;47.780;9.606;2023-04-01T00:23:24;6.28;;;0.85;;
19929;SDS011;10127;47.780;9.606;2023-04-01T00:25:51;3.15;;;1.17;;
19929;SDS011;10127;47.780;9.606;2023-04-01T00:28:16;4.72;;;1.00;;
19929;SDS011;10127;47.780;9.606;2023-04-01T00:30:43;2.17;;;0.90;;
19929;SDS011;10127;47.780;9.606;2023-04-01T00:33:09;2.45;;;1.02;;
19929;SDS011;10127;47.780;9.606;2023-04-01T00:35:35;1.30;;;0.70;;
19929;SDS011;10127;47.780;9.606;2023-04-01T00:38:01;2.83;;;1.10;;
19929;SDS011;10127;47.780;9.606;2023-04-01T00:40:30;5.38;;;0.82;;
19929;SDS011;10127;47.780;9.606;2023-04-01T00:43:01;3.72;;;0.93;;
19929;SDS011;10127;47.780;9.606;2023-04-01T00:45:37;3.28;;;0.98;;
19929;SDS011;10127;47.780;9.606;2023-04-01T00:48:16;2.72;;;0.80;;
19929;SDS011;10127;47.780;9.606;2023-04-01T00:50:56;7.50;;;1.10;;
19929;SDS011;10127;47.780;9.606;2023-04-01T00:53:26;2.83;;;0.95;;
19929;SDS011;10127;47.780;9.606;2023-04-01T00:56:14;3.85;;;0.80;;
19929;SDS011;10127;47.780;9.606;2023-04-01T00:58:44;1.55;;;0.88;;
19929;SDS011;10127;47.780;9.606;2023-04-01T01:01:14;2.67;;;1.10;;
19929;SDS011;10127;47.780;9.606;2023-04-01T01:03:40;0.85;;;0.75;;
19929;SDS011;10127;47.780;9.606;2023-04-01T01:17:08;9.48;;;1.48;;
19929;SDS011;10127;47.780;9.606;2023-04-01T01:20:00;5.10;;;0.98;;
19929;SDS011;10127;47.780;9.606;2023-04-01T01:22:45;4.60;;;1.65;;
19929;SDS011;10127;47.780;9.606;2023-04-01T01:33:49;2.90;;;1.00;;
19929;SDS011;10127;47.780;9.606;2023-04-01T01:36:18;2.30;;;1.10;;
19929;SDS011;10127;47.780;9.606;2023-04-01T01:38:46;3.40;;;0.80;;
19929;SDS011;10127;47.780;9.606;2023-04-01T01:41:13;3.40;;;0.73;;
19929;SDS011;10127;47.780;9.606;2023-04-01T01:43:43;2.37;;;0.57;;
19929;SDS011;10127;47.780;9.606;2023-04-01T01:46:13;1.57;;;0.70;;
19929;SDS011;10127;47.780;9.606;2023-04-01T01:48:42;4.00;;;1.00;;
19929;SDS011;10127;47.780;9.606;2023-04-01T01:51:09;5.37;;;0.93;;
19929;SDS011;10127;47.780;9.606;2023-04-01T01:53:35;2.57;;;0.70;;
19929;SDS011;10127;47.780;9.606;2023-04-01T01:56:01;1.02;;;0.60;;
19929;SDS011;10127;47.780;9.606;2023-04-01T01:58:29;5.63;;;0.82;;
19929;SDS011;10127;47.780;9.606;2023-04-01T02:01:05;3.70;;;0.77;;
19929;SDS011;10127;47.780;9.606;2023-04-01T02:03:34;2.80;;;0.87;;
19929;SDS011;10127;47.780;9.606;2023-04-01T02:06:03;0.70;;;0.50;;
19929;SDS011;10127;47.780;9.606;2023-04-01T02:08:35;1.27;;;0.67;;
19929;SDS011;10127;47.780;9.606;2023-04-01T02:11:18;2.30;;;0.57;;
19929;SDS011;10127;47.780;9.606;2023-04-01T02:13:58;1.07;;;0.60;;
19929;SDS011;10127;47.780;9.606;2023-04-01T02:16:53;2.13;;;0.60;;
19929;SDS011;10127;47.780;9.606;2023-04-01T02:19:32;1.13;;;0.80;;
19929;SDS011;10127;47.780;9.606;2023-04-01T02:22:03;1.30;;;0.60;;
19929;SDS011;10127;47.780;9.606;2023-04-01T02:24:31;1.77;;;0.60;;
19929;SDS011;10127;47.780;9.606;2023-04-01T02:27:00;1.37;;;0.60;;
19929;SDS011;10127;47.780;9.606;2023-04-01T02:29:26;2.03;;;0.70;;
19929;SDS011;10127;47.780;9.606;2023-04-01T02:31:52;3.10;;;0.70;;
19929;SDS011;10127;47.780;9.606;2023-04-01T02:34:20;0.77;;;0.63;;
19929;SDS011;10127;47.780;9.606;2023-04-01T02:36:47;2.00;;;0.73;;
19929;SDS011;10127;47.780;9.606;2023-04-01T02:39:15;2.28;;;0.70;;
19929;SDS011;10127;47.780;9.606;2023-04-01T02:41:41;1.47;;;0.60;;
19929;SDS011;10127;47.780;9.606;2023-04-01T02:44:09;2.53;;;0.70;;
19929;SDS011;10127;47.780;9.606;2023-04-01T02:46:36;1.47;;;0.70;;
19929;SDS011;10127;47.780;9.606;2023-04-01T02:49:02;1.77;;;0.60;;
19929;SDS011;10127;47.780;9.606;2023-04-01T03:12:05;2.43;;;0.90;;
19929;SDS011;10127;47.780;9.606;2023-04-01T03:14:31;2.47;;;0.70;;
19929;SDS011;10127;47.780;9.606;2023-04-01T03:16:56;2.73;;;0.90;;
19929;SDS011;10127;47.780;9.606;2023-04-01T03:19:22;3.27;;;0.87;;
19929;SDS011;10127;47.780;9.606;2023-04-01T03:21:47;1.60;;;1.00;;
19929;SDS011;10127;47.780;9.606;2023-04-01T03:24:13;2.17;;;1.00;;
19929;SDS011;10127;47.780;9.606;2023-04-01T03:26:38;3.53;;;0.85;;
19929;SDS011;10127;47.780;9.606;2023-04-01T03:29:04;5.77;;;0.80;;
19929;SDS011;10127;47.780;9.606;2023-04-01T03:31:30;2.88;;;0.80;;
19929;SDS011;10127;47.780;9.606;2023-04-01T03:33:55;2.45;;;0.88;;
19929;SDS011;10127;47.780;9.606;2023-04-01T03:36:21;1.83;;;0.87;;
19929;SDS011;10127;47.780;9.606;2023-04-01T03:38:46;2.08;;;0.98;;
19929;SDS011;10127;47.780;9.606;2023-04-01T03:41:13;4.05;;;0.60;;
19929;SDS011;10127;47.780;9.606;2023-04-01T03:43:40;4.97;;;0.90;;
19929;SDS011;10127;47.780;9.606;2023-04-01T03:46:06;1.17;;;0.73;;
19929;SDS011;10127;47.780;9.606;2023-04-01T03:48:32;3.72;;;1.10;;
19929;SDS011;10127;47.780;9.606;2023-04-01T03:50:57;5.03;;;0.90;;
19929;SDS011;10127;47.780;9.606;2023-04-01T03:53:23;1.37;;;0.80;;
19929;SDS011;10127;47.780;9.606;2023-04-01T03:55:49;6.00;;;1.17;;
19929;SDS011;10127;47.780;9.606;2023-04-01T03:58:16;3.20;;;1.30;;
19929;SDS011;10127;47.780;9.606;2023-04-01T04:00:42;1.57;;;0.80;;
19929;SDS011;10127;47.780;9.606;2023-04-01T04:03:08;2.80;;;1.03;;
19929;SDS011;10127;47.780;9.606;2023-04-01T04:05:33;2.83;;;0.90;;
19929;SDS011;10127;47.780;9.606;2023-04-01T04:07:59;4.73;;;1.03;;
19929;SDS011;10127;47.780;9.606;2023-04-01T04:10:24;7.95;;;1.30;;
19929;SDS011;10127;47.780;9.606;2023-04-01T04:12:50;3.15;;;1.10;;
19929;SDS011;10127;47.780;9.606;2023-04-01T04:15:16;2.00;;;1.17;;
19929;SDS011;10127;47.780;9.606;2023-04-01T04:17:43;2.03;;;1.00;;
19929;SDS011;10127;47.780;9.606;2023-04-01T04:20:10;3.50;;;0.90;;
19929;SDS011;10127;47.780;9.606;2023-04-01T04:22:35;2.10;;;1.02;;
19929;SDS011;10127;47.780;9.606;2023-04-01T04:25:01;6.35;;;1.10;;
19929;SDS011;10127;47.780;9.606;2023-04-01T04:27:26;3.67;;;1.00;;
19929;SDS011;10127;47.780;9.606;2023-04-01T04:29:52;3.93;;;0.90;;
19929;SDS011;10127;47.780;9.606;2023-04-01T04:32:18;4.22;;;1.00;;
19929;SDS011;10127;47.780;9.606;2023-04-01T04:34:43;2.53;;;1.13;;
19929;SDS011;10127;47.780;9.606;2023-04-01T04:37:09;3.47;;;0.93;;
19929;SDS011;10127;47.780;9.606;2023-04-01T04:39:34;3.17;;;1.27;;
19929;SDS011;10127;47.780;9.606;2023-04-01T04:42:00;3.30;;;0.97;;
19929;SDS011;10127;47.780;9.606;2023-04-01T04:44:25;3.72;;;1.10;;
19929;SDS011;10127;47.780;9.606;2023-04-01T04:46:51;2.63;;;1.00;;
19929;SDS011;10127;47.780;9.606;2023-04-01T04:49:17;3.33;;;1.20;;
19929;SDS011;10127;47.780;9.606;2023-04-01T04:51:42;2.75;;;1.10;;
19929;SDS011;10127;47.780;9.606;2023-04-01T04:54:08;1.95;;;0.98;;
19929;SDS011;10127;47.780;9.606;2023-04-01T04:56:34;2.00;;;1.00;;
19929;SDS011;10127;47.780;9.606;2023-04-01T04:59:00;2.87;;;1.00;;
19929;SDS011;10127;47.780;9.606;2023-04-01T05:01:26;8.88;;;1.42;;
19929;SDS011;10127;47.780;9.606;2023-04-01T05:03:52;4.40;;;1.08;;
19929;SDS011;10127;47.780;9.606;2023-04-01T05:06:18;2.65;;;1.02;;
19929;SDS011;10127;47.780;9.606;2023-04-01T05:08:44;5.20;;;1.20;;
19929;SDS011;10127;47.780;9.606;2023-04-01T05:11:14;6.75;;;0.93;;
19929;SDS011;10127;47.780;9.606;2023-04-01T05:13:42;4.00;;;1.02;;
19929;SDS011;10127;47.780;9.606;2023-04-01T05:16:12;1.73;;;1.00;;
19929;SDS011;10127;47.780;9.606;2023-04-01T05:18:40;2.65;;;0.80;;
19929;SDS011;10127;47.780;9.606;2023-04-01T05:21:07;1.92;;;0.77;;
19929;SDS011;10127;47.780;9.606;2023-04-01T05:23:34;3.08;;;0.95;;
19929;SDS011;10127;47.780;9.606;2023-04-01T05:26:04;2.92;;;0.82;;
19929;SDS011;10127;47.780;9.606;2023-04-01T05:28:34;3.17;;;0.90;;
19929;SDS011;10127;47.780;9.606;2023-04-01T05:31:00;3.70;;;1.00;;
19929;SDS011;10127;47.780;9.606;2023-04-01T05:33:29;2.47;;;0.90;;
19929;SDS011;10127;47.780;9.606;2023-04-01T05:35:56;3.22;;;1.05;;
19929;SDS011;10127;47.780;9.606;2023-04-01T05:38:21;1.88;;;0.63;;
19929;SDS011;10127;47.780;9.606;2023-04-01T05:40:47;2.67;;;0.90;;
19929;SDS011;10127;47.780;9.606;2023-04-01T05:43:13;1.98;;;0.93;;
19929;SDS011;10127;47.780;9.606;2023-04-01T05:45:38;3.85;;;1.00;;
19929;SDS011;10127;47.780;9.606;2023-04-01T05:48:04;6.78;;;1.35;;
19929;SDS011;10127;47.780;9.606;2023-04-01T05:50:30;2.20;;;0.85;;
19929;SDS011;10127;47.780;9.606;2023-04-01T05:52:56;4.43;;;1.15;;
19929;SDS011;10127;47.780;9.606;2023-04-01T05:55:22;3.40;;;0.93;;
19929;SDS011;10127;47.780;9.606;2023-04-01T05:57:47;4.45;;;1.20;;
19929;SDS011;10127;47.780;9.606;2023-04-01T06:00:14;2.00;;;1.00;;
19929;SDS011;10127;47.780;9.606;2023-04-01T06:02:40;4.90;;;1.10;;
19929;SDS011;10127;47.780;9.606;2023-04-01T06:05:18;1.77;;;1.10;;
19929;SDS011;10127;47.780;9.606;2023-04-01T06:07:44;2.65;;;1.30;;
19929;SDS011;10127;47.780;9.606;2023-04-01T06:10:15;2.17;;;1.00;;
19929;SDS011;10127;47.780;9.606;2023-04-01T06:15:34;1.92;;;0.90;;
19929;SDS011;10127;47.780;9.606;2023-04-01T06:26:30;5.05;;;1.00;;
19929;SDS011;10127;47.780;9.606;2023-04-01T06:29:10;2.33;;;1.00;;
19929;SDS011;10127;47.780;9.606;2023-04-01T06:39:42;2.15;;;0.73;;
19929;SDS011;10127;47.780;9.606;2023-04-01T06:42:13;1.75;;;0.77;;
19929;SDS011;10127;47.780;9.606;2023-04-01T06:50:19;4.20;;;0.93;;
19929;SDS011;10127;47.780;9.606;2023-04-01T06:58:05;3.70;;;0.80;;
19929;SDS011;10127;47.780;9.606;2023-04-01T07:00:48;0.65;;;0.40;;
19929;SDS011;10127;47.780;9.606;2023-04-01T07:05:46;1.38;;;1.10;;
19929;SDS011;10127;47.780;9.606;2023-04-01T07:08:13;3.60;;;0.80;;
19929;SDS011;10127;47.780;9.606;2023-04-01T07:10:47;1.73;;;0.60;;
19929;SDS011;10127;47.780;9.606;2023-04-01T07:13:41;0.93;;;0.60;;
19929;SDS011;10127;47.780;9.606;2023-04-01T07:16:14;0.50;;;0.50;;
19929;SDS011;10127;47.780;9.606;2023-04-01T07:18:42;1.08;;;0.55;;
19929;SDS011;10127;47.780;9.606;2023-04-01T07:21:58;2.90;;;0.50;;
19929;SDS011;10127;47.780;9.606;2023-04-01T07:24:26;3.65;;;1.02;;
19929;SDS011;10127;47.780;9.606;2023-04-01T07:26:57;1.40;;;0.47;;
19929;SDS011;10127;47.780;9.606;2023-04-01T07:29:23;1.50;;;0.50;;
19929;SDS011;10127;47.780;9.606;2023-04-01T07:34:33;1.15;;;0.55;;
19929;SDS011;10127;47.780;9.606;2023-04-01T07:37:23;1.77;;;0.50;;
19929;SDS011;10127;47.780;9.606;2023-04-01T07:55:50;1.77;;;0.50;;
19929;SDS011;10127;47.780;9.606;2023-04-01T07:58:34;0.95;;;0.47;;
19929;SDS011;10127;47.780;9.606;2023-04-01T08:01:27;1.92;;;1.23;;
19929;SDS011;10127;47.780;9.606;2023-04-01T08:06:34;1.58;;;0.60;;
19929;SDS011;10127;47.780;9.606;2023-04-01T08:20:07;1.20;;;0.60;;
19929;SDS011;10127;47.780;9.606;2023-04-01T08:25:31;0.82;;;0.40;;
19929;SDS011;10127;47.780;9.606;2023-04-01T08:30:51;0.38;;;0.30;;
19929;SDS011;10127;47.780;9.606;2023-04-01T08:33:38;1.15;;;0.63;;
19929;SDS011;10127;47.780;9.606;2023-04-01T08:36:17;1.65;;;0.50;;
19929;SDS011;10127;47.780;9.606;2023-04-01T08:38:49;1.02;;;0.45;;
19929;SDS011;10127;47.780;9.606;2023-04-01T08:44:14;1.90;;;0.80;;
19929;SDS011;10127;47.780;9.606;2023-04-01T08:55:25;3.58;;;0.60;;
19929;SDS011;10127;47.780;9.606;2023-04-01T09:07:57;1.08;;;0.60;;
19929;SDS011;10127;47.780;9.606;2023-04-01T09:27:19;1.10;;;0.50;;
19929;SDS011;10127;47.780;9.606;2023-04-01T09:33:04;0.50;;;0.50;;
19929;SDS011;10127;47.780;9.606;2023-04-01T09:38:56;0.90;;;0.50;;
19929;SDS011;10127;47.780;9.606;2023-04-01T09:47:39;0.50;;;0.45;;
19929;SDS011;10127;47.780;9.606;2023-04-01T09:53:07;0.35;;;0.35;;
19929;SDS011;10127;47.780;9.606;2023-04-01T09:55:48;0.65;;;0.38;;
19929;SDS011;10127;47.780;9.606;2023-04-01T10:04:08;0.52;;;0.40;;
19929;SDS011;10127;47.780;9.606;2023-04-01T10:20:41;0.50;;;0.45;;
19929;SDS011;10127;47.780;9.606;2023-04-01T10:23:50;0.47;;;0.40;;
19929;SDS011;10127;47.780;9.606;2023-04-01T10:48:58;0.47;;;0.43;;
19929;SDS011;10127;47.780;9.606;2023-04-01T10:56:40;1.13;;;0.47;;
19929;SDS011;10127;47.780;9.606;2023-04-01T10:59:36;4.53;;;2.28;;
19929;SDS011;10127;47.780;9.606;2023-04-01T11:11:36;0.45;;;0.45;;
19929;SDS011;10127;47.780;9.606;2023-04-01T11:17:04;0.50;;;0.40;;
19929;SDS011;10127;47.780;9.606;2023-04-01T11:25:05;1.42;;;0.50;;
19929;SDS011;10127;47.780;9.606;2023-04-01T11:33:36;1.10;;;0.70;;
19929;SDS011;10127;47.780;9.606;2023-04-01T11:39:22;0.98;;;0.40;;
19929;SDS011;10127;47.780;9.606;2023-04-01T11:41:56;3.17;;;0.60;;
19929;SDS011;10127;47.780;9.606;2023-04-01T11:44:42;0.50;;;0.50;;
19929;SDS011;10127;47.780;9.606;2023-04-01T11:47:28;0.50;;;0.40;;
19929;SDS011;10127;47.780;9.606;2023-04-01T11:55:24;1.13;;;0.50;;
19929;SDS011;10127;47.780;9.606;2023-04-01T12:03:30;1.95;;;0.50;;
19929;SDS011;10127;47.780;9.606;2023-04-01T12:06:34;0.85;;;0.50;;
19929;SDS011;10127;47.780;9.606;2023-04-01T12:14:24;0.73;;;0.38;;
19929;SDS011;10127;47.780;9.606;2023-04-01T12:28:22;2.55;;;0.45;;
19929;SDS011;10127;47.780;9.606;2023-04-01T12:31:18;0.30;;;0.30;;
19929;SDS011;10127;47.780;9.606;2023-04-01T12:36:53;0.30;;;0.30;;
19929;SDS011;10127;47.780;9.606;2023-04-01T12:45:31;0.57;;;0.43;;
19929;SDS011;10127;47.780;9.606;2023-04-01T12:57:09;0.30;;;0.30;;
19929;SDS011;10127;47.780;9.606;2023-04-01T13:05:50;0.85;;;0.40;;
19929;SDS011;10127;47.780;9.606;2023-04-01T13:08:34;0.30;;;0.30;;
19929;SDS011;10127;47.780;9.606;2023-04-01T13:22:18;0.55;;;0.40;;
19929;SDS011;10127;47.780;9.606;2023-04-01T13:27:44;0.55;;;0.32;;
19929;SDS011;10127;47.780;9.606;2023-04-01T13:30:28;0.30;;;0.30;;
19929;SDS011;10127;47.780;9.606;2023-04-01T13:35:30;1.10;;;0.50;;
19929;SDS011;10127;47.780;9.606;2023-04-01T13:43:39;0.88;;;0.40;;
19929;SDS011;10127;47.780;9.606;2023-04-01T14:05:53;2.67;;;0.75;;
19929;SDS011;10127;47.780;9.606;2023-04-01T14:14:13;0.93;;;0.57;;
19929;SDS011;10127;47.780;9.606;2023-04-01T14:19:39;0.40;;;0.40;;
19929;SDS011;10127;47.780;9.606;2023-04-01T14:22:25;0.50;;;0.40;;
19929;SDS011;10127;47.780;9.606;2023-04-01T14:33:04;0.65;;;0.60;;
19929;SDS011;10127;47.780;9.606;2023-04-01T14:35:59;1.63;;;0.60;;
19929;SDS011;10127;47.780;9.606;2023-04-01T14:41:33;0.68;;;0.60;;
19929;SDS011;10127;47.780;9.606;2023-04-01T14:44:11;1.02;;;0.60;;
19929;SDS011;10127;47.780;9.606;2023-04-01T14:47:08;1.35;;;0.70;;
19929;SDS011;10127;47.780;9.606;2023-04-01T14:49:51;1.02;;;0.50;;
19929;SDS011;10127;47.780;9.606;2023-04-01T14:52:23;1.27;;;0.50;;
19929;SDS011;10127;47.780;9.606;2023-04-01T14:54:55;1.48;;;0.70;;
19929;SDS011;10127;47.780;9.606;2023-04-01T14:57:27;1.10;;;0.70;;
19929;SDS011;10127;47.780;9.606;2023-04-01T14:59:59;1.88;;;0.60;;
19929;SDS011;10127;47.780;9.606;2023-04-01T15:05:31;0.68;;;0.55;;
19929;SDS011;10127;47.780;9.606;2023-04-01T15:10:43;0.80;;;0.50;;
19929;SDS011;10127;47.780;9.606;2023-04-01T15:19:04;0.73;;;0.73;;
19929;SDS011;10127;47.780;9.606;2023-04-01T15:24:46;0.60;;;0.43;;
19929;SDS011;10127;47.780;9.606;2023-04-01T15:27:37;2.35;;;0.80;;
19929;SDS011;10127;47.780;9.606;2023-04-01T15:32:59;0.80;;;0.47;;
19929;SDS011;10127;47.780;9.606;2023-04-01T15:35:45;1.13;;;0.52;;
19929;SDS011;10127;47.780;9.606;2023-04-01T15:43:53;0.85;;;0.50;;
19929;SDS011;10127;47.780;9.606;2023-04-01T15:49:18;1.08;;;0.63;;
19929;SDS011;10127;47.780;9.606;2023-04-01T15:59:57;0.70;;;0.70;;
19929;SDS011;10127;47.780;9.606;2023-04-01T16:02:47;2.28;;;0.50;;
19929;SDS011;10127;47.780;9.606;2023-04-01T16:09:06;0.40;;;0.40;;
19929;SDS011;10127;47.780;9.606;2023-04-01T16:11:53;0.63;;;0.43;;
19929;SDS011;10127;47.780;9.606;2023-04-01T16:20:00;0.40;;;0.40;;
19929;SDS011;10127;47.780;9.606;2023-04-01T16:30:39;0.40;;;0.40;;
19929;SDS011;10127;47.780;9.606;2023-04-01T16:33:14;2.00;;;0.40;;
19929;SDS011;10127;47.780;9.606;2023-04-01T16:35:44;0.98;;;0.40;;
19929;SDS011;10127;47.780;9.606;2023-04-01T16:38:33;0.60;;;0.47;;
19929;SDS011;10127;47.780;9.606;2023-04-01T16:41:10;0.40;;;0.40;;
19929;SDS011;10127;47.780;9.606;2023-04-01T16:43:43;0.40;;;0.40;;
19929;SDS011;10127;47.780;9.606;2023-04-01T16:46:26;0.40;;;0.40;;
19929;SDS011;10127;47.780;9.606;2023-04-01T16:51:48;0.32;;;0.32;;
19929;SDS011;10127;47.780;9.606;2023-04-01T16:57:25;1.13;;;0.73;;
19929;SDS011;10127;47.780;9.606;2023-04-01T17:03:10;0.80;;;0.80;;
19929;SDS011;10127;47.780;9.606;2023-04-01T17:06:01;2.55;;;1.20;;
19929;SDS011;10127;47.780;9.606;2023-04-01T17:08:45;0.50;;;0.50;;
19929;SDS011;10127;47.780;9.606;2023-04-01T17:11:24;0.70;;;0.60;;
19929;SDS011;10127;47.780;9.606;2023-04-01T17:21:49;0.55;;;0.52;;
19929;SDS011;10127;47.780;9.606;2023-04-01T17:24:43;0.80;;;0.70;;
19929;SDS011;10127;47.780;9.606;2023-04-01T17:27:22;0.57;;;0.57;;
19929;SDS011;10127;47.780;9.606;2023-04-01T17:38:18;0.70;;;0.60;;
19929;SDS011;10127;47.780;9.606;2023-04-01T17:43:52;3.15;;;0.60;;
19929;SDS011;10127;47.780;9.606;2023-04-01T17:54:52;2.47;;;1.70;;
19929;SDS011;10127;47.780;9.606;2023-04-01T17:57:46;3.28;;;1.17;;
19929;SDS011;10127;47.780;9.606;2023-04-01T18:00:33;0.98;;;0.85;;
19929;SDS011;10127;47.780;9.606;2023-04-01T18:03:18;1.58;;;0.77;;
19929;SDS011;10127;47.780;9.606;2023-04-01T18:05:50;0.60;;;0.60;;
19929;SDS011;10127;47.780;9.606;2023-04-01T18:14:37;0.80;;;0.65;;
19929;SDS011;10127;47.780;9.606;2023-04-01T18:22:44;1.17;;;0.75;;
19929;SDS011;10127;47.780;9.606;2023-04-01T18:25:24;0.73;;;0.68;;
19929;SDS011;10127;47.780;9.606;2023-04-01T18:31:04;2.58;;;1.55;;
19929;SDS011;10127;47.780;9.606;2023-04-01T18:33:42;2.40;;;1.27;;
19929;SDS011;10127;47.780;9.606;2023-04-01T18:38:50;6.15;;;1.67;;
19929;SDS011;10127;47.780;9.606;2023-04-01T18:41:43;2.70;;;1.90;;
19929;SDS011;10127;47.780;9.606;2023-04-01T18:44:54;2.78;;;2.03;;
19929;SDS011;10127;47.780;9.606;2023-04-01T18:50:37;3.40;;;2.40;;
19929;SDS011;10127;47.780;9.606;2023-04-01T18:56:15;2.35;;;1.85;;
19929;SDS011;10127;47.780;9.606;2023-04-01T18:59:08;2.40;;;1.80;;
19929;SDS011;10127;47.780;9.606;2023-04-01T19:04:22;2.50;;;1.55;;
19929;SDS011;10127;47.780;9.606;2023-04-01T19:07:21;2.72;;;1.67;;
19929;SDS011;10127;47.780;9.606;2023-04-01T19:09:50;3.30;;;1.48;;
19929;SDS011;10127;47.780;9.606;2023-04-01T19:23:25;4.32;;;2.28;;
19929;SDS011;10127;47.780;9.606;2023-04-01T19:26:00;3.40;;;1.80;;
19929;SDS011;10127;47.780;9.606;2023-04-01T19:28:39;2.53;;;1.63;;
19929;SDS011;10127;47.780;9.606;2023-04-01T19:34:15;2.50;;;1.00;;
19929;SDS011;10127;47.780;9.606;2023-04-01T19:36:49;1.48;;;1.23;;
19929;SDS011;10127;47.780;9.606;2023-04-01T19:45:07;2.10;;;1.30;;
19929;SDS011;10127;47.780;9.606;2023-04-01T19:48:13;2.13;;;1.50;;
19929;SDS011;10127;47.780;9.606;2023-04-01T19:51:10;2.85;;;1.52;;
19929;SDS011;10127;47.780;9.606;2023-04-01T19:53:56;3.17;;;1.45;;
19929;SDS011;10127;47.780;9.606;2023-04-01T19:56:41;2.58;;;1.65;;
19929;SDS011;10127;47.780;9.606;2023-04-01T19:59:23;2.25;;;1.10;;
19929;SDS011;10127;47.780;9.606;2023-04-01T20:04:38;3.05;;;1.42;;
19929;SDS011;10127;47.780;9.606;2023-04-01T20:10:02;7.35;;;1.10;;
19929;SDS011;10127;47.780;9.606;2023-04-01T20:15:36;2.67;;;0.90;;
19929;SDS011;10127;47.780;9.606;2023-04-01T20:18:08;1.20;;;0.90;;
19929;SDS011;10127;47.780;9.606;2023-04-01T20:20:41;2.65;;;1.25;;
19929;SDS011;10127;47.780;9.606;2023-04-01T20:23:30;2.53;;;1.02;;
19929;SDS011;10127;47.780;9.606;2023-04-01T20:26:14;1.92;;;1.10;;
19929;SDS011;10127;47.780;9.606;2023-04-01T20:29:34;1.42;;;0.95;;
19929;SDS011;10127;47.780;9.606;2023-04-01T20:34:49;2.03;;;0.90;;
19929;SDS011;10127;47.780;9.606;2023-04-01T20:37:30;2.90;;;1.10;;
19929;SDS011;10127;47.780;9.606;2023-04-01T20:48:40;2.28;;;1.10;;
19929;SDS011;10127;47.780;9.606;2023-04-01T20:51:22;4.80;;;1.15;;
19929;SDS011;10127;47.780;9.606;2023-04-01T20:53:58;1.80;;;0.98;;
19929;SDS011;10127;47.780;9.606;2023-04-01T21:05:45;2.00;;;0.83;;
19929;SDS011;10127;47.780;9.606;2023-04-01T21:11:10;1.58;;;1.20;;
19929;SDS011;10127;47.780;9.606;2023-04-01T21:14:02;3.13;;;1.10;;
19929;SDS011;10127;47.780;9.606;2023-04-01T21:16:46;1.93;;;1.03;;
19929;SDS011;10127;47.780;9.606;2023-04-01T21:19:30;3.20;;;1.30;;
19929;SDS011;10127;47.780;9.606;2023-04-01T21:33:01;0.80;;;0.80;;
19929;SDS011;10127;47.780;9.606;2023-04-01T21:42:13;2.15;;;0.90;;
19929;SDS011;10127;47.780;9.606;2023-04-01T21:50:39;1.90;;;0.90;;
19929;SDS011;10127;47.780;9.606;2023-04-01T21:56:00;2.85;;;1.50;;
19929;SDS011;10127;47.780;9.606;2023-04-01T22:05:25;1.13;;;0.87;;
19929;SDS011;10127;47.780;9.606;2023-04-01T22:10:57;1.40;;;1.00;;
19929;SDS011;10127;47.780;9.606;2023-04-01T22:13:35;1.67;;;1.10;;
19929;SDS011;10127;47.780;9.606;2023-04-01T22:16:25;1.93;;;1.10;;
19929;SDS011;10127;47.780;9.606;2023-04-01T22:19:35;1.13;;;1.03;;
19929;SDS011;10127;47.780;9.606;2023-04-01T22:21:43;1.20;;;1.00;;
19929;SDS011;10127;47.780;9.606;2023-04-01T22:24:36;1.27;;;1.00;;
19929;SDS011;10127;47.780;9.606;2023-04-01T22:32:48;0.90;;;0.90;;
19929;SDS011;10127;47.780;9.606;2023-04-01T22:35:26;3.57;;;0.80;;
19929;SDS011;10127;47.780;9.606;2023-04-01T22:40:45;4.70;;;1.20;;
19929;SDS011;10127;47.780;9.606;2023-04-01T22:43:22;1.80;;;1.07;;
19929;SDS011;10127;47.780;9.606;2023-04-01T22:48:37;2.67;;;0.93;;
19929;SDS011;10127;47.780;9.606;2023-04-01T22:51:16;2.93;;;1.00;;
19929;SDS011;10127;47.780;9.606;2023-04-01T22:56:32;1.83;;;1.40;;
19929;SDS011;10127;47.780;9.606;2023-04-01T22:59:10;1.90;;;1.10;;
19929;SDS011;10127;47.780;9.606;2023-04-01T23:01:54;2.33;;;1.00;;
19929;SDS011;10127;47.780;9.606;2023-04-01T23:04:24;1.60;;;1.37;;
19929;SDS011;10127;47.780;9.606;2023-04-01T23:07:00;1.03;;;1.00;;
19929;SDS011;10127;47.780;9.606;2023-04-01T23:09:31;2.00;;;1.07;;
19929;SDS011;10127;47.780;9.606;2023-04-01T23:12:00;4.73;;;1.30;;
19929;SDS011;10127;47.780;9.606;2023-04-01T23:17:20;2.10;;;1.13;;
19929;SDS011;10127;47.780;9.606;2023-04-01T23:22:25;2.30;;;1.40;;
19929;SDS011;10127;47.780;9.606;2023-04-01T23:27:48;1.97;;;1.33;;
19929;SDS011;10127;47.780;9.606;2023-04-01T23:35:51;1.73;;;1.30;;
19929;SDS011;10127;47.780;9.606;2023-04-01T23:38:29;3.03;;;1.57;;
19929;SDS011;10127;47.780;9.606;2023-04-01T23:41:02;3.60;;;2.10;;
19929;SDS011;10127;47.780;9.606;2023-04-01T23:43:35;2.07;;;1.70;;
19929;SDS011;10127;47.780;9.606;2023-04-01T23:46:05;3.37;;;2.17;;
19929;SDS011;10127;47.780;9.606;2023-04-01T23:48:50;2.00;;;1.60;;
19929;SDS011;10127;47.780;9.606;2023-04-01T23:51:24;2.73;;;1.50;;
19929;SDS011;10127;47.780;9.606;2023-04-01T23:54:02;2.50;;;2.20;;
19929;SDS011;10127;47.780;9.606;2023-04-01T23:56:40;2.00;;;1.80;;
19929;SDS011;10127;47.780;9.606;2023-04-01T23:59:16;3.23;;;1.47;;
